createdAt,value
2018-11-02T00:02:04.434Z,93.10
2018-11-02T00:04:41.116Z,93.10
2018-11-02T00:07:19.435Z,92.90
2018-11-02T00:10:12.307Z,93.10
2018-11-02T00:12:51.363Z,93.20
2018-11-02T00:15:28.107Z,93.30
2018-11-02T00:18:05.428Z,93.20
2018-11-02T00:20:43.752Z,93.30
2018-11-02T00:23:35.556Z,92.90
2018-11-02T00:26:12.402Z,93.40
2018-11-02T00:28:48.170Z,93.60
2018-11-02T00:31:23.904Z,93.50
2018-11-02T00:33:59.903Z,93.80
2018-11-02T00:36:35.785Z,94.00
2018-11-02T00:39:11.735Z,94.30
2018-11-02T00:41:47.437Z,94.40
2018-11-02T00:44:23.293Z,94.80
2018-11-02T00:46:59.170Z,95.30
2018-11-02T00:49:34.875Z,95.30
2018-11-02T00:52:10.671Z,95.70
2018-11-02T00:54:47.202Z,96.50
2018-11-02T00:57:24.528Z,97.00
2018-11-02T01:00:00.938Z,96.80
2018-11-02T01:02:36.903Z,96.60
2018-11-02T01:05:13.268Z,96.40
2018-11-02T01:07:49.642Z,96.50
2018-11-02T01:10:25.997Z,96.10
2018-11-02T01:13:02.454Z,95.70
2018-11-02T01:15:38.969Z,95.80
2018-11-02T01:18:15.721Z,95.90
2018-11-02T01:20:51.648Z,96.50
2018-11-02T01:23:27.209Z,96.70
2018-11-02T01:26:03.243Z,97.20
2018-11-02T01:28:39.079Z,97.60
2018-11-02T01:31:15.559Z,97.70
2018-11-02T01:33:51.748Z,97.60
2018-11-02T01:36:28.450Z,97.70
2018-11-02T01:39:04.431Z,97.80
2018-11-02T01:41:40.865Z,97.40
2018-11-02T01:44:16.514Z,97.20
2018-11-02T01:46:52.346Z,97.10
2018-11-02T01:49:28.012Z,97.20
2018-11-02T01:52:03.838Z,97.10
2018-11-02T01:54:39.539Z,96.90
2018-11-02T01:57:15.871Z,96.60
2018-11-02T01:59:52.236Z,96.20
2018-11-02T02:02:28.778Z,96.20
2018-11-02T02:05:04.925Z,96.50
2018-11-02T02:07:41.076Z,96.50
2018-11-02T02:10:16.940Z,96.50
2018-11-02T02:12:52.805Z,96.00
2018-11-02T02:15:28.475Z,96.10
2018-11-02T02:18:04.110Z,96.50
2018-11-02T02:20:39.942Z,96.60
2018-11-02T02:23:15.511Z,96.60
2018-11-02T02:25:51.207Z,96.90
2018-11-02T02:28:27.108Z,96.80
2018-11-02T02:31:02.808Z,96.40
2018-11-02T02:33:39.334Z,96.20
2018-11-02T02:36:15.240Z,96.40
2018-11-02T02:38:51.059Z,96.20
2018-11-02T02:41:27.060Z,96.80
2018-11-02T02:44:03.843Z,97.30
2018-11-02T02:46:44.143Z,97.90
2018-11-02T02:49:20.260Z,99.30
2018-11-02T02:51:56.018Z,99.90
2018-11-02T02:54:31.852Z,99.90
2018-11-02T02:57:07.601Z,99.90
2018-11-02T02:59:43.497Z,99.90
2018-11-02T03:02:20.111Z,99.90
2018-11-02T03:04:55.831Z,99.80
2018-11-02T03:07:31.677Z,99.50
2018-11-02T03:10:07.793Z,98.70
2018-11-02T03:12:44.517Z,98.30
2018-11-02T03:15:20.355Z,98.10
2018-11-02T03:17:55.915Z,98.20
2018-11-02T03:20:31.712Z,98.60
2018-11-02T03:23:07.578Z,98.80
2018-11-02T03:25:43.303Z,98.50
2018-11-02T03:28:18.901Z,98.20
2018-11-02T03:30:55.538Z,98.30
2018-11-02T03:33:31.656Z,98.30
2018-11-02T03:36:08.327Z,98.40
2018-11-02T03:38:44.746Z,98.40
2018-11-02T03:41:20.680Z,98.10
2018-11-02T03:43:56.314Z,97.70
2018-11-02T03:46:32.924Z,97.90
2018-11-02T03:49:08.714Z,98.00
2018-11-02T03:51:44.380Z,98.10
2018-11-02T03:54:20.046Z,98.60
2018-11-02T03:56:55.822Z,99.60
2018-11-02T03:59:31.535Z,99.80
2018-11-02T04:02:07.495Z,99.90
2018-11-02T04:04:43.107Z,99.90
2018-11-02T04:07:18.845Z,99.60
2018-11-02T04:09:54.602Z,99.20
2018-11-02T04:12:30.249Z,99.30
2018-11-02T04:15:06.123Z,99.40
2018-11-02T04:17:42.163Z,99.60
2018-11-02T04:20:18.762Z,99.40
2018-11-02T04:22:54.763Z,99.10
2018-11-02T04:25:31.479Z,98.80
2018-11-02T04:28:07.888Z,98.80
2018-11-02T04:30:44.531Z,98.80
2018-11-02T04:33:21.264Z,99.60
2018-11-02T04:35:58.634Z,99.90
2018-11-02T04:38:34.310Z,99.90
2018-11-02T04:41:10.086Z,99.90
2018-11-02T04:43:45.806Z,99.90
2018-11-02T04:46:21.748Z,99.80
2018-11-02T04:48:57.549Z,99.60
2018-11-02T04:51:33.441Z,99.90
2018-11-02T04:54:09.295Z,99.90
2018-11-02T04:56:45.150Z,99.90
2018-11-02T04:59:20.906Z,99.90
2018-11-02T05:01:56.434Z,99.90
2018-11-02T05:04:32.174Z,99.90
2018-11-02T05:07:08.166Z,99.90
2018-11-02T05:09:44.204Z,99.90
2018-11-02T05:12:19.873Z,99.90
2018-11-02T05:14:56.444Z,99.90
2018-11-02T05:17:32.760Z,99.90
2018-11-02T05:20:10.574Z,99.90
2018-11-02T05:22:46.937Z,99.90
2018-11-02T05:25:22.507Z,99.90
2018-11-02T05:27:59.296Z,99.90
2018-11-02T05:30:35.000Z,99.90
2018-11-02T05:33:10.772Z,99.90
2018-11-02T05:35:47.374Z,99.90
2018-11-02T05:38:23.560Z,99.90
2018-11-02T05:40:59.315Z,99.90
2018-11-02T05:43:34.946Z,99.90
2018-11-02T05:46:10.632Z,99.90
2018-11-02T05:48:46.499Z,99.90
2018-11-02T05:51:22.123Z,99.90
2018-11-02T05:53:57.989Z,99.90
2018-11-02T05:56:33.812Z,99.90
2018-11-02T05:59:09.797Z,99.90
2018-11-02T06:01:46.923Z,99.90
2018-11-02T06:04:24.448Z,99.90
2018-11-02T06:07:01.544Z,99.90
2018-11-02T06:09:37.724Z,99.90
2018-11-02T06:12:14.203Z,99.90
2018-11-02T06:14:51.232Z,99.90
2018-11-02T06:17:27.008Z,99.90
2018-11-02T06:20:02.728Z,99.90
2018-11-02T06:22:39.200Z,99.90
2018-11-02T06:25:16.229Z,99.90
2018-11-02T06:27:52.251Z,99.90
2018-11-02T06:30:28.830Z,99.90
2018-11-02T06:33:04.737Z,99.90
2018-11-02T06:35:40.546Z,99.90
2018-11-02T06:38:16.433Z,99.90
2018-11-02T06:40:52.181Z,99.90
2018-11-02T06:43:29.093Z,99.90
2018-11-02T06:46:06.095Z,99.90
2018-11-02T06:48:42.162Z,99.90
2018-11-02T06:51:17.908Z,99.90
2018-11-02T06:53:54.465Z,99.90
2018-11-02T06:56:30.512Z,99.90
2018-11-02T06:59:07.287Z,99.90
2018-11-02T07:01:42.970Z,99.90
2018-11-02T07:04:20.252Z,99.90
2018-11-02T07:06:56.133Z,99.90
2018-11-02T07:09:31.753Z,99.90
2018-11-02T07:12:07.769Z,99.90
2018-11-02T07:14:43.531Z,99.90
2018-11-02T07:17:20.211Z,99.90
2018-11-02T07:19:55.993Z,99.90
2018-11-02T07:22:31.980Z,99.90
2018-11-02T07:25:08.823Z,99.90
2018-11-02T07:27:45.361Z,99.90
2018-11-02T07:30:24.720Z,99.90
2018-11-02T07:33:05.688Z,99.90
2018-11-02T07:35:42.085Z,99.90
2018-11-02T07:38:18.717Z,99.90
2018-11-02T07:41:05.328Z,99.60
2018-11-02T07:43:41.217Z,98.70
2018-11-02T07:46:17.042Z,97.90
2018-11-02T07:48:52.959Z,97.60
2018-11-02T07:51:28.588Z,97.70
2018-11-02T07:54:04.424Z,97.00
2018-11-02T07:56:40.438Z,96.50
2018-11-02T07:59:16.168Z,95.30
2018-11-02T08:01:56.371Z,94.40
2018-11-02T08:04:36.385Z,94.10
2018-11-02T08:07:19.631Z,93.30
2018-11-02T08:09:55.531Z,92.90
2018-11-02T08:12:31.654Z,92.90
2018-11-02T08:15:09.792Z,92.60
2018-11-02T08:17:46.722Z,93.40
2018-11-02T08:20:23.310Z,93.20
2018-11-02T08:22:59.592Z,93.00
2018-11-02T08:25:35.508Z,91.70
2018-11-02T08:28:12.115Z,91.60
2018-11-02T08:30:47.746Z,91.20
2018-11-02T08:33:23.501Z,90.00
2018-11-02T08:35:59.100Z,87.20
2018-11-02T08:38:40.093Z,86.70
2018-11-02T08:41:25.726Z,84.70
2018-11-02T08:44:05.169Z,85.30
2018-11-02T08:46:48.440Z,86.50
2018-11-02T08:49:25.552Z,83.70
2018-11-02T08:52:01.561Z,81.20
2018-11-02T08:54:38.087Z,80.40
2018-11-02T08:57:16.549Z,80.70
2018-11-02T08:59:54.433Z,80.80
2018-11-02T09:02:34.133Z,80.60
2018-11-02T09:05:14.580Z,79.80
2018-11-02T09:07:50.728Z,79.30
2018-11-02T09:10:27.862Z,78.50
2018-11-02T09:13:03.872Z,78.10
2018-11-02T09:15:39.774Z,78.10
2018-11-02T09:18:16.260Z,79.50
2018-11-02T09:20:52.386Z,76.90
2018-11-02T09:23:28.150Z,77.60
2018-11-02T09:26:03.804Z,75.70
2018-11-02T09:28:39.534Z,75.50
2018-11-02T09:31:15.486Z,72.40
2018-11-02T09:33:52.657Z,75.50
2018-11-02T09:36:28.955Z,73.00
2018-11-02T09:39:08.158Z,70.00
2018-11-02T09:41:44.196Z,68.80
2018-11-02T09:44:20.657Z,70.90
2018-11-02T09:46:57.625Z,68.90
2018-11-02T09:49:33.282Z,69.20
2018-11-02T09:52:09.033Z,69.20
2018-11-02T09:54:44.983Z,67.50
2018-11-02T09:57:20.695Z,66.50
2018-11-02T09:59:56.369Z,67.50
2018-11-02T10:02:33.004Z,69.50
2018-11-02T10:05:10.434Z,68.40
2018-11-02T10:07:46.434Z,67.50
2018-11-02T10:10:23.032Z,69.30
2018-11-02T10:12:58.922Z,68.70
2018-11-02T10:15:35.548Z,69.70
2018-11-02T10:18:11.511Z,70.50
2018-11-02T10:20:47.373Z,69.80
2018-11-02T10:23:23.908Z,67.20
2018-11-02T10:26:01.065Z,67.40
2018-11-02T10:28:37.329Z,68.20
2018-11-02T10:31:14.304Z,67.50
2018-11-02T10:33:50.916Z,67.30
2018-11-02T10:36:27.656Z,67.10
2018-11-02T10:39:03.774Z,68.40
2018-11-02T10:41:47.080Z,66.70
2018-11-02T10:44:27.806Z,66.10
2018-11-02T10:47:05.995Z,64.30
2018-11-02T10:49:42.268Z,63.50
2018-11-02T10:52:17.990Z,63.20
2018-11-02T10:54:54.627Z,63.10
2018-11-02T10:57:30.615Z,64.20
2018-11-02T11:00:13.360Z,59.60
2018-11-02T11:02:49.560Z,59.30
2018-11-02T11:05:26.103Z,58.50
2018-11-02T11:08:02.180Z,60.50
2018-11-02T11:10:38.102Z,59.00
2018-11-02T11:13:15.112Z,60.90
2018-11-02T11:15:52.146Z,62.30
2018-11-02T11:18:28.380Z,60.90
2018-11-02T11:21:05.284Z,58.50
2018-11-02T11:23:41.770Z,59.00
2018-11-02T11:26:17.534Z,59.00
2018-11-02T11:28:53.306Z,58.70
2018-11-02T11:31:29.332Z,56.50
2018-11-02T11:34:05.976Z,56.30
2018-11-02T11:36:42.094Z,57.80
2018-11-02T11:39:17.784Z,56.50
2018-11-02T11:41:53.516Z,56.10
2018-11-02T11:44:29.958Z,57.10
2018-11-02T11:47:05.926Z,55.10
2018-11-02T11:49:41.500Z,55.10
2018-11-02T11:52:17.216Z,57.20
2018-11-02T11:54:53.136Z,55.70
2018-11-02T11:57:29.068Z,56.50
2018-11-02T12:00:07.510Z,54.30
2018-11-02T12:02:43.835Z,55.60
2018-11-02T12:05:21.746Z,56.20
2018-11-02T12:07:58.040Z,56.40
2018-11-02T12:10:34.843Z,56.00
2018-11-02T12:13:10.464Z,55.90
2018-11-02T12:15:46.187Z,54.70
2018-11-02T12:18:22.105Z,55.50
2018-11-02T12:20:58.954Z,55.50
2018-11-02T12:23:35.677Z,54.60
2018-11-02T12:26:12.293Z,55.50
2018-11-02T12:28:49.294Z,54.80
2018-11-02T12:31:26.198Z,55.80
2018-11-02T12:34:02.680Z,55.50
2018-11-02T12:36:39.215Z,55.40
2018-11-02T12:39:14.994Z,54.50
2018-11-02T12:41:50.870Z,52.70
2018-11-02T12:44:26.534Z,54.00
2018-11-02T12:47:02.768Z,54.90
2018-11-02T12:49:40.532Z,55.30
2018-11-02T12:52:16.616Z,54.90
2018-11-02T12:54:52.789Z,55.00
2018-11-02T12:57:28.773Z,54.60
2018-11-02T13:00:05.877Z,54.30
2018-11-02T13:02:42.761Z,55.00
2018-11-02T13:05:19.031Z,55.20
2018-11-02T13:07:55.893Z,55.10
2018-11-02T13:10:31.783Z,55.60
2018-11-02T13:13:07.544Z,55.80
2018-11-02T13:15:44.305Z,56.40
2018-11-02T13:18:21.035Z,56.20
2018-11-02T13:20:56.923Z,56.50
2018-11-02T13:23:33.450Z,57.50
2018-11-02T13:26:09.247Z,57.90
2018-11-02T13:28:44.737Z,58.30
2018-11-02T13:31:20.685Z,57.80
2018-11-02T13:33:56.368Z,59.70
2018-11-02T13:36:32.091Z,60.30
2018-11-02T13:39:11.873Z,59.50
2018-11-02T13:41:48.206Z,59.70
2018-11-02T13:44:24.772Z,59.50
2018-11-02T13:47:01.393Z,59.10
2018-11-02T13:49:37.789Z,59.90
2018-11-02T13:52:14.141Z,59.60
2018-11-02T13:54:50.667Z,59.20
2018-11-02T13:57:26.461Z,59.30
2018-11-02T14:00:02.611Z,60.60
2018-11-02T14:02:38.313Z,61.10
2018-11-02T14:05:19.150Z,61.50
2018-11-02T14:07:56.429Z,62.00
2018-11-02T14:10:33.230Z,62.70
2018-11-02T14:13:09.729Z,63.60
2018-11-02T14:15:45.615Z,63.50
2018-11-02T14:18:21.404Z,64.60
2018-11-02T14:20:56.999Z,66.60
2018-11-02T14:23:32.635Z,66.30
2018-11-02T14:26:08.905Z,67.10
2018-11-02T14:28:45.203Z,68.20
2018-11-02T14:31:21.011Z,69.30
2018-11-02T14:33:57.602Z,69.80
2018-11-02T14:36:33.588Z,70.30
2018-11-02T14:39:13.773Z,71.00
2018-11-02T14:41:50.437Z,71.80
2018-11-02T14:44:26.934Z,72.40
2018-11-02T14:47:03.907Z,73.00
2018-11-02T14:49:40.476Z,74.20
2018-11-02T14:52:17.096Z,75.10
2018-11-02T14:54:52.797Z,75.90
2018-11-02T14:57:30.283Z,77.20
2018-11-02T15:03:04.855Z,78.20
2018-11-02T15:05:40.561Z,78.80
2018-11-02T15:08:25.043Z,81.10
2018-11-02T15:11:01.309Z,81.30
2018-11-02T15:13:37.766Z,81.20
2018-11-02T15:19:31.145Z,82.60
2018-11-02T15:22:07.458Z,82.90
2018-11-02T15:24:43.363Z,83.20
2018-11-02T15:27:19.325Z,83.60
2018-11-02T15:29:55.830Z,84.70
2018-11-02T15:32:32.035Z,85.00
2018-11-02T15:35:08.469Z,86.10
2018-11-02T15:37:44.844Z,87.30
2018-11-02T15:40:20.726Z,88.00
2018-11-02T15:42:57.226Z,87.90
2018-11-02T15:45:33.328Z,87.80
2018-11-02T15:48:10.042Z,88.60
2018-11-02T15:50:46.951Z,88.80
2018-11-02T15:53:23.766Z,88.60
2018-11-02T15:56:00.591Z,88.80
2018-11-02T15:58:36.799Z,89.00
2018-11-02T16:01:22.033Z,89.10
2018-11-02T16:04:01.692Z,89.50
2018-11-02T16:06:37.637Z,90.10
2018-11-02T16:09:15.562Z,89.90
2018-11-02T16:11:52.580Z,89.90
2018-11-02T16:14:29.348Z,90.50
2018-11-02T16:17:06.523Z,90.40
2018-11-02T16:19:42.646Z,90.10
2018-11-02T16:22:18.385Z,90.10
2018-11-02T16:24:55.278Z,90.20
2018-11-02T16:27:31.146Z,90.40
2018-11-02T16:30:08.710Z,90.60
2018-11-02T16:32:45.438Z,90.60
2018-11-02T16:35:22.344Z,91.20
2018-11-02T16:37:58.466Z,91.40
2018-11-02T16:40:35.362Z,91.30
2018-11-02T16:43:13.302Z,91.40
2018-11-02T16:45:49.919Z,91.70
2018-11-02T16:48:27.153Z,92.50
2018-11-02T16:51:03.326Z,93.60
2018-11-02T16:53:39.469Z,93.60
2018-11-02T16:56:16.153Z,94.30
2018-11-02T16:58:52.038Z,94.00
2018-11-02T17:01:29.024Z,93.80
2018-11-02T17:04:06.169Z,93.50
2018-11-02T17:06:42.549Z,93.40
2018-11-02T17:09:19.643Z,93.40
2018-11-02T17:11:55.699Z,93.50
2018-11-02T17:14:32.181Z,93.30
2018-11-02T17:17:09.050Z,93.30
2018-11-02T17:19:45.704Z,93.50
2018-11-02T17:22:23.034Z,93.80
2018-11-02T17:24:59.388Z,93.60
2018-11-02T17:27:35.304Z,93.90
2018-11-02T17:30:15.248Z,94.80
2018-11-02T17:32:51.710Z,95.10
2018-11-02T17:35:28.534Z,94.90
2018-11-02T17:38:04.497Z,95.10
2018-11-02T17:40:41.125Z,95.80
2018-11-02T17:43:17.428Z,96.10
2018-11-02T17:45:53.924Z,96.50
2018-11-02T17:48:30.368Z,96.00
2018-11-02T17:51:07.341Z,95.70
2018-11-02T17:53:43.602Z,95.40
2018-11-02T17:56:19.261Z,95.30
2018-11-02T17:58:55.995Z,95.00
2018-11-02T18:01:32.316Z,96.10
2018-11-02T18:04:10.372Z,96.00
2018-11-02T18:06:46.097Z,95.60
2018-11-02T18:09:21.960Z,95.70
2018-11-02T18:11:58.288Z,96.10
2018-11-02T18:14:34.702Z,96.00
2018-11-02T18:17:10.632Z,96.00
2018-11-02T18:19:47.149Z,96.00
2018-11-02T18:22:23.545Z,95.90
2018-11-02T18:24:59.418Z,96.30
2018-11-02T18:27:35.815Z,96.90
2018-11-02T18:30:13.007Z,96.30
2018-11-02T18:32:50.340Z,95.70
2018-11-02T18:35:26.359Z,95.20
2018-11-02T18:38:02.538Z,95.10
2018-11-02T18:40:39.160Z,95.20
2018-11-02T18:43:15.664Z,95.10
2018-11-02T18:45:51.623Z,94.90
2018-11-02T18:48:27.784Z,95.10
2018-11-02T18:51:04.418Z,94.90
2018-11-02T18:53:40.504Z,95.40
2018-11-02T18:56:16.762Z,95.00
2018-11-02T18:58:53.958Z,94.80
2018-11-02T19:01:52.361Z,94.60
2018-11-02T19:04:29.747Z,94.40
2018-11-02T19:07:06.049Z,94.50
2018-11-02T19:09:42.298Z,94.70
2018-11-02T19:12:18.486Z,94.90
2018-11-02T19:14:54.979Z,95.20
2018-11-02T19:17:30.947Z,95.30
2018-11-02T19:20:08.671Z,95.20
2018-11-02T19:22:46.491Z,95.30
2018-11-02T19:25:22.342Z,95.10
2018-11-02T19:27:58.828Z,95.30
2018-11-02T19:30:34.719Z,95.20
2018-11-02T19:33:11.791Z,95.50
2018-11-02T19:35:47.545Z,95.00
2018-11-02T19:38:25.265Z,95.20
2018-11-02T19:41:01.778Z,95.10
2018-11-02T19:43:37.879Z,94.70
2018-11-02T19:46:14.327Z,94.60
2018-11-02T19:48:50.682Z,95.70
2018-11-02T19:51:26.733Z,95.70
2018-11-02T19:54:03.955Z,95.90
2018-11-02T19:56:40.295Z,95.90
2018-11-02T19:59:17.006Z,95.70
2018-11-02T20:01:53.453Z,95.50
2018-11-02T20:04:30.403Z,95.30
2018-11-02T20:07:06.465Z,95.10
2018-11-02T20:09:42.710Z,95.00
2018-11-02T20:12:19.081Z,95.70
2018-11-02T20:14:54.904Z,96.80
2018-11-02T20:17:30.884Z,97.70
2018-11-02T20:20:07.644Z,97.90
2018-11-02T20:22:43.726Z,97.40
2018-11-02T20:25:19.567Z,97.00
2018-11-02T20:27:56.144Z,96.60
2018-11-02T20:30:32.226Z,96.60
2018-11-02T20:33:08.023Z,96.70
2018-11-02T20:35:43.936Z,96.70
2018-11-02T20:38:19.669Z,96.40
2018-11-02T20:40:56.633Z,96.40
2018-11-02T20:43:33.868Z,96.90
2018-11-02T20:46:14.537Z,97.30
2018-11-02T20:48:52.510Z,97.50
2018-11-02T20:51:30.295Z,97.00
2018-11-02T20:54:07.000Z,96.50
2018-11-02T20:56:45.804Z,96.50
2018-11-02T20:59:22.933Z,96.70
2018-11-02T21:02:00.620Z,97.10
2018-11-02T21:04:37.716Z,97.40
2018-11-02T21:07:14.705Z,97.20
2018-11-02T21:09:52.190Z,97.50
2018-11-02T21:12:28.320Z,99.50
2018-11-02T21:15:07.334Z,99.80
2018-11-02T21:17:44.227Z,99.50
2018-11-02T21:20:23.981Z,99.10
2018-11-02T21:23:02.217Z,98.70
2018-11-02T21:25:39.237Z,98.30
2018-11-02T21:28:15.939Z,98.20
2018-11-02T21:30:52.753Z,97.90
2018-11-02T21:33:29.286Z,97.40
2018-11-02T21:36:06.085Z,97.00
2018-11-02T21:38:42.292Z,96.70
2018-11-02T21:41:19.973Z,96.60
2018-11-02T21:43:56.032Z,96.60
2018-11-02T21:46:34.912Z,96.60
2018-11-02T21:49:11.513Z,96.40
2018-11-02T21:51:47.411Z,96.20
2018-11-02T21:54:23.724Z,96.10
2018-11-02T21:59:45.503Z,95.70
2018-11-02T22:02:22.248Z,95.70
2018-11-02T22:04:58.640Z,95.30
2018-11-02T22:07:35.165Z,94.70
2018-11-02T22:10:12.679Z,94.50
2018-11-02T22:12:49.057Z,94.40
2018-11-02T22:15:25.043Z,94.40
2018-11-02T22:18:01.528Z,94.10
2018-11-02T22:20:37.739Z,94.00
2018-11-02T22:23:13.964Z,94.10
2018-11-02T22:25:50.392Z,94.10
2018-11-02T22:28:26.542Z,94.10
2018-11-02T22:31:02.796Z,94.20
2018-11-02T22:33:38.633Z,94.10
2018-11-02T22:36:15.650Z,94.00
2018-11-02T22:38:52.037Z,93.90
2018-11-02T22:41:27.846Z,93.60
2018-11-02T22:44:03.776Z,93.70
2018-11-02T22:46:39.504Z,93.80
2018-11-02T22:49:15.878Z,93.80
2018-11-02T22:51:52.302Z,94.30
2018-11-02T22:54:28.229Z,94.30
2018-11-02T22:57:04.167Z,94.30
2018-11-02T22:59:40.167Z,94.30
2018-11-02T23:02:16.195Z,94.40
2018-11-02T23:04:52.065Z,94.40
2018-11-02T23:07:28.384Z,94.60
2018-11-02T23:10:07.316Z,94.90
2018-11-02T23:12:43.159Z,95.00
2018-11-02T23:15:20.582Z,95.30
2018-11-02T23:17:56.462Z,95.30
2018-11-02T23:20:32.907Z,95.70
2018-11-02T23:23:09.260Z,96.20
2018-11-02T23:25:45.744Z,96.30
2018-11-02T23:28:22.228Z,96.40
2018-11-02T23:30:58.537Z,96.50
2018-11-02T23:33:34.818Z,96.50
2018-11-02T23:36:11.440Z,96.70
2018-11-02T23:38:48.958Z,96.80
2018-11-02T23:41:24.934Z,96.80
2018-11-02T23:44:01.936Z,96.50
2018-11-02T23:46:37.864Z,96.60
2018-11-02T23:49:13.582Z,96.60
2018-11-02T23:51:49.397Z,96.40
2018-11-02T23:54:25.230Z,96.40
2018-11-02T23:57:01.125Z,96.10
2018-11-02T23:59:36.936Z,96.60
